Time;durP1;ratioP1;P1;durP2;ratioP2;P2;SDS_P1;SDS_P2;PMS_P1;PMS_P2;Temp;Humidity;BMP_temperature;BMP_pressure;BME280_temperature;BME280_humidity;BME280_pressure;Samples;Min_cycle;Max_cycle;Signal;HPM_P1;HPM_P2
2021/09/20 00:00:51;;;;;;;7.93;2.67;;;12.70;99.90;;;13.39;74.24;101495.88;5113133;28;20199;-70
2021/09/20 00:03:18;;;;;;;8.95;2.47;;;12.70;99.90;;;13.39;74.31;101498.50;5114709;28;20202;-71
2021/09/20 00:05:46;;;;;;;8.27;2.25;;;12.70;99.90;;;13.41;74.55;101501.06;5114893;28;20655;-71
2021/09/20 00:08:13;;;;;;;8.43;2.30;;;12.70;99.90;;;13.40;74.25;101494.06;5113453;28;20187;-70
2021/09/20 00:10:40;;;;;;;7.45;2.20;;;12.70;99.90;;;13.40;74.07;101499.31;5110272;28;20199;-71
2021/09/20 00:13:06;;;;;;;6.63;2.00;;;12.70;99.90;;;13.43;73.03;101499.25;5092767;28;20265;-70
2021/09/20 00:15:33;;;;;;;6.00;1.95;;;12.80;99.90;;;13.47;71.71;101506.09;5094185;28;20183;-71
2021/09/20 00:18:00;;;;;;;7.82;2.35;;;12.80;99.90;;;13.47;70.85;101500.81;5094694;28;20191;-70
2021/09/20 00:20:27;;;;;;;6.30;1.90;;;12.80;99.90;;;13.46;71.12;101502.59;5092856;28;20272;-71
2021/09/20 00:22:55;;;;;;;6.22;2.20;;;12.80;99.90;;;13.44;71.70;101507.06;5103275;28;20214;-71
2021/09/20 00:25:22;;;;;;;7.25;2.22;;;12.70;99.90;;;13.42;72.21;101498.38;5108111;28;20222;-70
2021/09/20 00:27:49;;;;;;;8.10;2.58;;;12.80;99.90;;;13.39;73.05;101500.25;5109798;28;20202;-71
2021/09/20 00:30:15;;;;;;;8.02;2.38;;;12.70;99.90;;;13.38;73.23;101504.66;5105437;28;20261;-71
2021/09/20 00:32:42;;;;;;;6.88;2.22;;;12.70;99.90;;;13.39;73.69;101497.63;5109430;28;20559;-70
2021/09/20 00:35:10;;;;;;;9.18;2.58;;;12.70;99.90;;;13.40;73.94;101501.94;5110071;28;20201;-70
2021/09/20 00:37:37;;;;;;;7.82;2.55;;;12.80;99.90;;;13.40;73.98;101500.19;5111449;27;20253;-69
2021/09/20 00:40:08;;;;;;;6.97;2.30;;;12.70;99.90;;;13.39;74.32;101497.63;5109146;28;20206;-70
2021/09/20 00:42:35;;;;;;;6.43;2.20;;;12.70;99.90;;;13.35;74.31;101502.13;5102012;28;20202;-69
2021/09/20 00:45:04;;;;;;;6.97;2.25;;;12.70;99.90;;;13.33;74.62;101508.38;5105838;28;20188;-69
2021/09/20 00:47:31;;;;;;;6.38;2.20;;;12.70;99.90;;;13.30;74.75;101508.47;5106628;28;20190;-70
2021/09/20 00:49:58;;;;;;;10.27;2.45;;;12.70;99.90;;;13.28;74.74;101499.78;5101709;27;20184;-69
2021/09/20 00:52:25;;;;;;;8.27;2.47;;;12.70;99.90;;;13.29;75.07;101504.13;5105349;28;20219;-71
2021/09/20 00:54:52;;;;;;;9.00;2.45;;;12.60;99.90;;;13.27;74.86;101503.31;5112511;28;20186;-71
2021/09/20 00:57:21;;;;;;;9.02;2.42;;;12.60;99.90;;;13.24;75.09;101508.69;5109661;28;20205;-70
2021/09/20 00:59:48;;;;;;;7.97;2.63;;;12.60;99.90;;;13.23;75.45;101499.94;5107826;28;20211;-69
2021/09/20 01:02:15;;;;;;;8.73;2.70;;;12.60;99.90;;;13.24;75.06;101508.69;5100086;27;20221;-70
2021/09/20 01:04:41;;;;;;;8.23;2.45;;;12.60;99.90;;;13.25;75.22;101507.75;5099746;28;20184;-71
2021/09/20 01:07:08;;;;;;;9.07;2.92;;;12.60;99.90;;;13.28;75.33;101510.31;5097258;28;20656;-71
2021/09/20 01:09:39;;;;;;;10.60;2.78;;;12.70;99.90;;;13.29;74.92;101506.75;5099148;28;20191;-71
2021/09/20 01:12:07;;;;;;;7.43;2.50;;;12.60;99.90;;;13.28;74.98;101503.25;5100386;28;20717;-71
2021/09/20 01:14:35;;;;;;;7.40;2.35;;;12.60;99.90;;;13.27;74.50;101503.31;5113605;28;20659;-71
2021/09/20 01:17:03;;;;;;;6.55;1.90;;;12.60;99.90;;;13.28;74.50;101515.56;5112400;28;20190;-69
2021/09/20 01:19:30;;;;;;;9.30;2.75;;;12.60;99.90;;;13.24;74.34;101511.31;5113018;28;20214;-70
2021/09/20 01:22:03;;;;;;;10.32;2.60;;;12.60;99.90;;;13.26;74.40;101512.13;5111913;28;20210;-71
2021/09/20 01:24:31;;;;;;;7.55;2.38;;;12.60;99.90;;;13.24;74.48;101514.81;5104011;28;20671;-70
2021/09/20 01:27:02;;;;;;;9.00;2.70;;;12.60;99.90;;;13.25;74.34;101515.66;5108704;28;20202;-71
2021/09/20 01:29:29;;;;;;;10.10;2.55;;;12.60;99.90;;;13.22;74.15;101518.41;5113992;28;20183;-70
2021/09/20 01:31:57;;;;;;;9.82;2.20;;;12.60;99.90;;;13.20;74.52;101518.44;5118654;28;20211;-69
2021/09/20 01:34:24;;;;;;;6.20;2.20;;;12.50;99.90;;;13.21;74.31;101521.94;5120115;28;20187;-70
2021/09/20 01:36:52;;;;;;;7.35;2.47;;;12.50;99.90;;;13.20;74.36;101514.97;5127045;28;20186;-71
2021/09/20 01:39:22;;;;;;;8.27;2.78;;;12.60;99.90;;;13.21;74.26;101511.44;5109354;28;20743;-70
2021/09/20 01:41:51;;;;;;;8.90;2.42;;;12.50;99.90;;;13.21;74.26;101520.16;5106863;28;20214;-71
2021/09/20 01:44:18;;;;;;;8.55;2.30;;;12.50;99.90;;;13.22;74.34;101521.88;5106214;28;20203;-70
2021/09/20 01:46:48;;;;;;;8.23;2.38;;;12.50;99.90;;;13.23;74.28;101512.25;5110673;28;20187;-70
2021/09/20 01:49:16;;;;;;;5.75;2.28;;;12.50;99.90;;;13.23;74.11;101513.09;5106572;28;20187;-71
2021/09/20 01:51:44;;;;;;;8.90;2.53;;;12.60;99.90;;;13.25;74.01;101513.03;5103972;28;20218;-70
2021/09/20 01:54:11;;;;;;;8.38;2.30;;;12.50;99.90;;;13.22;74.09;101514.00;5100691;28;20252;-71
2021/09/20 01:56:39;;;;;;;8.35;2.72;;;12.50;99.90;;;13.23;74.23;101518.34;5110650;28;20560;-70
2021/09/20 01:59:08;;;;;;;9.52;2.75;;;12.60;99.90;;;13.24;74.35;101519.19;5110849;28;20618;-68
2021/09/20 02:01:35;;;;;;;8.23;2.40;;;12.60;99.90;;;13.24;74.45;101519.19;5122524;27;20749;-70
2021/09/20 02:04:03;;;;;;;7.45;2.40;;;12.60;99.90;;;13.23;74.44;101517.50;5096004;28;20191;-69
2021/09/20 02:06:30;;;;;;;6.05;2.22;;;12.60;99.90;;;13.21;74.39;101516.69;5102296;28;20191;-69
2021/09/20 02:08:57;;;;;;;9.18;2.50;;;12.60;99.90;;;13.23;74.55;101517.50;5103600;28;22197;-69
2021/09/20 02:11:25;;;;;;;7.47;2.50;;;12.60;99.90;;;13.23;74.68;101517.50;5106016;28;20243;-71
2021/09/20 02:13:54;;;;;;;8.32;2.25;;;12.60;99.90;;;13.23;75.00;101512.25;5103893;28;20191;-71
2021/09/20 02:16:22;;;;;;;8.50;2.20;;;12.50;99.90;;;13.20;74.68;101513.19;5096667;28;20202;-70
2021/09/20 02:18:49;;;;;;;6.95;2.20;;;12.60;99.90;;;13.17;74.81;101513.31;5105176;28;20206;-71
2021/09/20 02:21:17;;;;;;;8.63;2.60;;;12.50;99.90;;;13.17;74.92;101518.56;5105309;28;20199;-70
2021/09/20 02:23:44;;;;;;;7.78;2.38;;;12.50;99.90;;;13.16;75.08;101513.38;5110067;28;20663;-71
2021/09/20 02:26:11;;;;;;;10.20;2.63;;;12.50;99.90;;;13.16;74.90;101510.75;5105398;28;20202;-72
2021/09/20 02:28:39;;;;;;;9.88;2.50;;;12.50;99.90;;;13.15;75.40;101514.25;5106960;28;20195;-71
2021/09/20 02:31:08;;;;;;;9.55;2.53;;;12.50;99.90;;;13.14;75.41;101517.81;5102320;28;20194;-70
2021/09/20 02:33:38;;;;;;;7.28;2.60;;;12.50;99.90;;;13.14;75.20;101513.44;5109773;28;20244;-71
2021/09/20 02:36:07;;;;;;;8.15;2.70;;;12.50;99.90;;;13.12;75.44;101509.13;5112964;28;20964;-70
2021/09/20 02:38:36;;;;;;;11.68;2.60;;;12.50;99.90;;;13.12;75.43;101514.38;5100065;28;20190;-71
2021/09/20 02:41:03;;;;;;;7.18;2.38;;;12.50;99.90;;;13.10;75.22;101517.06;5101268;28;20209;-70
2021/09/20 02:43:31;;;;;;;7.88;2.45;;;12.40;99.90;;;13.11;75.34;101515.28;5109939;28;20271;-70
2021/09/20 02:45:58;;;;;;;8.15;2.58;;;12.50;99.90;;;13.08;75.08;101516.25;5110369;28;20186;-71
2021/09/20 02:48:24;;;;;;;8.70;2.42;;;12.50;99.90;;;13.10;75.34;101510.94;5104760;28;20233;-72
2021/09/20 02:50:53;;;;;;;9.18;2.70;;;12.50;99.90;;;13.11;75.53;101518.75;5107293;28;20259;-71
2021/09/20 02:53:20;;;;;;;8.60;2.60;;;12.50;99.90;;;13.13;75.44;101516.09;5106635;28;20275;-71
2021/09/20 02:55:47;;;;;;;9.32;2.60;;;12.50;99.90;;;13.16;75.23;101508.94;5098775;28;20209;-71
2021/09/20 02:58:14;;;;;;;7.90;2.47;;;12.60;99.90;;;13.16;75.10;101511.56;5115152;28;20247;-70
2021/09/20 03:00:41;;;;;;;9.30;2.55;;;12.50;99.90;;;13.17;75.13;101512.44;5112347;28;20206;-71
2021/09/20 03:03:08;;;;;;;8.70;2.30;;;12.50;99.90;;;13.16;74.94;101510.75;5105943;28;20218;-71
2021/09/20 03:05:36;;;;;;;9.23;2.58;;;12.50;99.90;;;13.17;74.75;101507.19;5106615;28;20203;-71
2021/09/20 03:08:06;;;;;;;8.13;2.10;;;12.50;99.90;;;13.17;74.63;101507.19;5094082;28;20198;-70
2021/09/20 03:10:34;;;;;;;7.05;2.75;;;12.50;99.90;;;13.17;74.62;101501.94;5124371;27;20183;-71
2021/09/20 03:13:01;;;;;;;7.72;2.28;;;12.50;99.90;;;13.15;74.90;101496.72;5112092;28;20231;-70
2021/09/20 03:15:28;;;;;;;8.55;2.60;;;12.50;99.90;;;13.12;74.90;101499.47;5114442;28;20659;-71
2021/09/20 03:17:55;;;;;;;9.98;2.60;;;12.50;99.90;;;13.10;75.10;101513.56;5111332;28;20195;-71
2021/09/20 03:20:22;;;;;;;7.97;2.30;;;12.50;99.90;;;13.08;74.95;101523.28;5106142;28;20222;-71
2021/09/20 03:22:49;;;;;;;8.05;2.55;;;12.40;99.90;;;13.10;75.02;101527.56;5111240;28;20220;-71
2021/09/20 03:25:18;;;;;;;7.25;2.40;;;12.50;99.90;;;13.14;74.82;101530.94;5109368;28;20713;-71
2021/09/20 03:27:46;;;;;;;11.82;2.63;;;12.40;99.90;;;13.14;75.07;101523.06;5104103;28;20191;-71
2021/09/20 03:30:15;;;;;;;10.13;2.60;;;12.50;99.90;;;13.14;75.36;101528.31;5111962;28;20739;-71
2021/09/20 03:32:42;;;;;;;10.82;3.00;;;12.50;99.90;;;13.13;75.17;101532.72;5110695;28;20234;-71
2021/09/20 03:35:14;;;;;;;10.15;2.75;;;12.50;99.90;;;13.11;75.03;101539.78;5108441;28;20686;-71
2021/09/20 03:37:41;;;;;;;9.43;2.92;;;12.50;99.90;;;13.12;75.09;101535.41;5108574;28;20658;-71
2021/09/20 03:40:10;;;;;;;11.98;3.38;;;12.50;99.90;;;13.13;75.19;101537.13;5111070;28;20739;-72
2021/09/20 03:42:39;;;;;;;10.88;3.30;;;12.50;99.90;;;13.11;75.40;101533.69;5111131;28;20217;-71
2021/09/20 03:45:07;;;;;;;13.20;3.08;;;12.50;99.90;;;13.10;75.03;101529.34;5113089;27;20198;-70
2021/09/20 03:47:34;;;;;;;13.30;3.13;;;12.50;99.90;;;13.10;75.56;101532.81;5113865;28;20217;-71
2021/09/20 03:50:00;;;;;;;10.98;3.25;;;12.50;99.90;;;13.12;75.95;101530.13;5108351;28;20198;-71
2021/09/20 03:52:27;;;;;;;10.43;2.90;;;12.50;99.90;;;13.13;75.73;101537.97;5111713;28;20203;-72
2021/09/20 03:54:54;;;;;;;9.63;3.30;;;12.50;99.90;;;13.11;75.53;101545.03;5111378;28;20194;-71
2021/09/20 03:57:21;;;;;;;13.15;2.90;;;12.50;99.90;;;13.12;75.79;101541.53;5114361;28;20395;-71
2021/09/20 03:59:49;;;;;;;11.70;3.10;;;12.50;99.90;;;13.11;75.66;101546.84;5106672;27;20210;-71
2021/09/20 04:02:16;;;;;;;10.32;3.15;;;12.50;99.90;;;13.10;75.57;101537.22;5111947;28;20276;-71
2021/09/20 04:04:42;;;;;;;11.43;2.90;;;12.50;99.90;;;13.11;75.71;101536.31;5099444;28;20191;-72
2021/09/20 04:07:09;;;;;;;7.40;2.50;;;12.50;99.90;;;13.15;75.50;101535.28;5104167;27;20213;-72
2021/09/20 04:09:37;;;;;;;7.85;2.65;;;12.50;99.90;;;13.17;75.31;101543.97;5105382;27;20239;-72
2021/09/20 04:12:05;;;;;;;11.52;3.10;;;12.50;99.90;;;13.15;75.46;101540.53;5107477;28;20260;-71
2021/09/20 04:14:31;;;;;;;10.27;2.55;;;12.60;99.90;;;13.12;75.43;101552.03;5116019;28;20187;-71
2021/09/20 04:17:00;;;;;;;13.07;3.83;;;12.50;99.90;;;13.13;75.36;101552.91;5099280;28;20199;-72
2021/09/20 04:19:26;;;;;;;9.57;2.75;;;12.60;99.90;;;13.13;75.46;101556.38;5113212;28;20312;-72
2021/09/20 04:21:53;;;;;;;11.32;3.22;;;12.60;99.90;;;13.15;75.76;101564.19;5111829;28;20218;-70
2021/09/20 04:24:21;;;;;;;11.30;2.80;;;12.60;99.90;;;13.17;76.10;101562.38;5114272;27;20241;-71
2021/09/20 04:26:48;;;;;;;8.27;2.88;;;12.60;99.90;;;13.16;75.87;101568.56;5115888;28;20581;-71
2021/09/20 04:29:15;;;;;;;9.20;3.00;;;12.60;99.90;;;13.17;76.16;101565.00;5114105;28;20591;-72
2021/09/20 04:31:41;;;;;;;10.45;3.00;;;12.60;99.90;;;13.17;76.13;101567.63;5112743;28;20241;-71
2021/09/20 04:34:10;;;;;;;8.95;2.55;;;12.60;99.90;;;13.17;76.36;101570.25;5113874;28;20244;-72
2021/09/20 04:36:37;;;;;;;11.93;2.50;;;12.60;99.90;;;13.15;76.47;101569.44;5111406;28;20209;-71
2021/09/20 04:39:04;;;;;;;8.27;2.85;;;12.60;99.90;;;13.12;76.52;101572.19;5111897;28;20198;-72
2021/09/20 04:41:31;;;;;;;7.47;2.38;;;12.60;99.90;;;13.08;76.64;101565.34;5113784;28;20219;-71
2021/09/20 04:43:58;;;;;;;9.80;2.80;;;12.50;99.90;;;13.05;76.80;101571.53;5099286;28;20191;-71
2021/09/20 04:46:25;;;;;;;10.07;2.60;;;12.50;99.90;;;13.04;76.87;101575.09;5122500;27;20202;-71
2021/09/20 04:48:51;;;;;;;8.18;2.65;;;12.50;99.90;;;13.01;77.23;101580.44;5110467;28;20724;-71
2021/09/20 04:51:19;;;;;;;10.77;3.70;;;12.50;99.90;;;12.99;77.11;101571.72;5109727;28;20195;-70
2021/09/20 04:53:46;;;;;;;8.05;2.58;;;12.40;99.90;;;12.98;77.40;101575.25;5107836;28;20194;-71
2021/09/20 04:56:14;;;;;;;10.55;2.85;;;12.40;99.90;;;12.98;77.35;101582.28;5107885;28;20195;-71
2021/09/20 04:58:41;;;;;;;8.38;2.85;;;12.40;99.90;;;12.95;77.39;101585.00;5110069;28;20652;-71
2021/09/20 05:01:08;;;;;;;8.35;2.55;;;12.40;99.90;;;12.94;77.85;101585.91;5103694;28;20219;-71
2021/09/20 05:03:35;;;;;;;9.07;2.50;;;12.40;99.90;;;12.94;77.56;101586.78;5105491;28;20183;-72
2021/09/20 05:06:01;;;;;;;7.60;2.30;;;12.40;99.90;;;12.94;77.96;101585.91;5125432;27;20682;-71
2021/09/20 05:08:29;;;;;;;7.80;2.40;;;12.40;99.90;;;12.94;77.89;101594.69;5116079;28;20308;-71
2021/09/20 05:11:05;;;;;;;7.57;2.50;;;12.30;99.90;;;12.93;77.86;101592.94;5125566;28;20191;-71
2021/09/20 05:13:32;;;;;;;7.85;2.70;;;12.30;99.90;;;12.94;78.17;101580.66;5112235;27;20770;-71
2021/09/20 05:15:59;;;;;;;7.45;2.25;;;12.30;99.90;;;12.94;78.12;101593.81;5100119;28;20183;-70
2021/09/20 05:18:26;;;;;;;8.52;2.50;;;12.30;99.90;;;12.90;78.27;101579.91;5109179;28;20194;-71
2021/09/20 05:20:52;;;;;;;9.60;2.70;;;12.30;99.90;;;12.91;78.39;101588.66;5105287;27;20207;-71
2021/09/20 05:23:19;;;;;;;8.80;2.97;;;12.30;99.90;;;12.93;78.12;101587.69;5104288;28;20276;-70
2021/09/20 05:25:47;;;;;;;8.95;2.70;;;12.30;99.90;;;12.97;78.40;101593.69;5103113;28;20308;-69
2021/09/20 05:28:14;;;;;;;12.23;2.80;;;12.30;99.90;;;12.96;78.48;101592.00;5106215;28;20187;-70
2021/09/20 05:30:41;;;;;;;11.77;3.05;;;12.30;99.90;;;12.94;78.56;101585.91;5110136;28;20190;-71
2021/09/20 05:33:07;;;;;;;19.33;4.45;;;12.40;99.90;;;12.95;78.81;101587.63;5106086;28;20210;-70
2021/09/20 05:35:34;;;;;;;14.02;3.90;;;12.40;99.90;;;13.00;78.92;101599.72;5097823;28;20193;-70
2021/09/20 05:38:01;;;;;;;17.75;3.70;;;12.40;99.90;;;13.00;78.85;101604.97;5091200;28;20210;-71
2021/09/20 05:40:29;;;;;;;11.00;3.58;;;12.50;99.90;;;13.01;78.56;101601.44;5107768;28;20215;-70
2021/09/20 05:42:58;;;;;;;13.80;3.38;;;12.50;99.90;;;13.03;78.82;101604.06;5111617;28;20210;-70
2021/09/20 05:45:27;;;;;;;10.70;2.90;;;12.50;99.90;;;13.05;78.96;101604.84;5112928;27;20269;-70
2021/09/20 05:47:54;;;;;;;12.25;3.15;;;12.50;99.90;;;13.03;78.83;101611.94;5129274;27;20671;-71
2021/09/20 05:50:23;;;;;;;13.23;3.35;;;12.50;99.90;;;13.01;78.63;101621.59;5111533;28;20195;-71
2021/09/20 05:52:50;;;;;;;11.55;3.70;;;12.50;99.90;;;13.00;78.64;101609.34;5112573;28;20207;-71
2021/09/20 05:55:17;;;;;;;9.85;2.75;;;12.50;99.90;;;13.01;78.82;101605.84;5111404;28;20198;-71
2021/09/20 05:57:44;;;;;;;11.32;2.90;;;12.50;99.90;;;13.03;78.55;101610.16;5117192;27;20695;-71
2021/09/20 06:00:14;;;;;;;9.95;3.00;;;12.50;99.90;;;13.07;78.47;101616.16;5090753;28;20211;-71
2021/09/20 06:02:42;;;;;;;7.75;2.67;;;12.60;99.90;;;13.08;78.67;101612.66;5107889;28;20211;-70
2021/09/20 06:05:12;;;;;;;10.40;2.58;;;12.60;99.90;;;13.12;78.77;101614.25;5091498;28;20188;-71
2021/09/20 06:07:39;;;;;;;9.82;2.72;;;12.60;99.90;;;13.14;78.72;101613.28;5106716;28;20535;-71
2021/09/20 06:10:08;;;;;;;10.40;2.53;;;12.70;99.90;;;13.15;78.95;101614.13;5104906;28;20202;-71
2021/09/20 06:12:35;;;;;;;8.52;2.72;;;12.70;99.90;;;13.16;78.54;101607.97;5102990;28;20219;-70
2021/09/20 06:15:03;;;;;;;6.65;2.53;;;12.70;99.90;;;13.18;78.44;101606.16;5105523;28;20658;-71
2021/09/20 06:17:31;;;;;;;7.90;2.25;;;12.70;99.90;;;13.19;78.18;101608.75;5107407;28;20187;-71
2021/09/20 06:19:58;;;;;;;7.85;2.55;;;12.70;99.90;;;13.23;77.61;101609.50;5101150;28;20194;-71
2021/09/20 06:22:24;;;;;;;9.15;3.15;;;12.70;99.90;;;13.25;77.57;101612.91;5103643;28;20238;-71
2021/09/20 06:24:51;;;;;;;9.00;2.80;;;12.80;99.90;;;13.29;77.40;101611.91;5104166;28;20203;-72
2021/09/20 06:27:18;;;;;;;11.43;3.17;;;12.80;99.90;;;13.33;77.41;101618.78;5106140;28;20562;-71
2021/09/20 06:29:45;;;;;;;10.40;2.92;;;12.80;99.90;;;13.36;77.22;101623.94;5110612;28;20260;-70
2021/09/20 06:32:12;;;;;;;9.10;2.85;;;12.80;99.90;;;13.37;77.07;101629.16;5107199;28;20215;-69
2021/09/20 06:34:40;;;;;;;11.00;3.28;;;12.90;99.90;;;13.36;77.17;101618.69;5092086;28;20241;-71
2021/09/20 06:37:07;;;;;;;9.32;2.65;;;12.90;99.90;;;13.36;77.17;101622.16;5091938;28;20198;-71
2021/09/20 06:39:34;;;;;;;12.23;2.90;;;12.90;99.90;;;13.33;76.94;101621.41;5107009;28;20186;-72
2021/09/20 06:42:02;;;;;;;9.30;2.72;;;12.90;99.90;;;13.35;77.38;101627.47;5099504;28;20234;-72
2021/09/20 06:44:29;;;;;;;9.00;3.10;;;12.90;99.90;;;13.38;77.16;101622.97;5102808;28;20211;-71
2021/09/20 06:46:56;;;;;;;9.13;2.45;;;12.90;99.90;;;13.42;76.71;101623.72;5101748;28;20282;-71
2021/09/20 06:49:23;;;;;;;11.38;3.13;;;13.00;99.90;;;13.46;76.60;101630.59;5095873;28;20211;-72
2021/09/20 06:51:52;;;;;;;10.00;2.97;;;13.00;99.90;;;13.50;76.80;101630.44;5107032;28;20214;-71
2021/09/20 06:54:20;;;;;;;8.25;2.40;;;13.00;99.90;;;13.52;76.62;101619.84;5101737;28;20191;-72
2021/09/20 06:56:48;;;;;;;9.70;2.97;;;13.10;99.90;;;13.54;76.51;101634.69;5106977;28;20190;-72
2021/09/20 06:59:15;;;;;;;8.73;3.35;;;13.10;99.90;;;13.58;76.17;101630.19;5106511;28;20622;-72
2021/09/20 07:01:42;;;;;;;8.77;2.80;;;13.20;99.90;;;13.60;76.14;101636.22;5108052;28;20226;-72
2021/09/20 07:04:09;;;;;;;9.02;2.67;;;13.20;99.90;;;13.59;75.80;101626.63;5100600;28;20195;-72
2021/09/20 07:06:36;;;;;;;9.02;2.53;;;13.20;99.90;;;13.62;75.27;101631.78;5104519;28;20198;-70
2021/09/20 07:09:04;;;;;;;8.65;2.80;;;13.30;99.90;;;13.66;75.57;101636.84;5110394;28;20179;-72
2021/09/20 07:11:31;;;;;;;13.98;3.90;;;13.30;99.90;;;13.70;75.57;101640.25;5109783;28;20209;-71
2021/09/20 07:13:58;;;;;;;10.25;3.05;;;13.30;99.90;;;13.72;75.33;101643.69;5110400;28;20687;-71
2021/09/20 07:16:25;;;;;;;8.27;2.55;;;13.40;99.90;;;13.74;75.11;101641.88;5106778;28;20183;-72
2021/09/20 07:18:52;;;;;;;9.23;3.25;;;13.40;99.90;;;13.79;74.78;101634.66;5104942;28;20236;-72
2021/09/20 07:21:23;;;;;;;8.85;2.90;;;13.40;99.90;;;13.83;74.85;101641.56;5108880;28;20260;-72
2021/09/20 07:23:51;;;;;;;9.77;3.40;;;13.40;99.90;;;13.85;74.86;101644.97;5106119;28;20260;-71
2021/09/20 07:26:20;;;;;;;9.10;2.80;;;13.50;99.90;;;13.86;74.45;101649.31;5094886;28;20199;-72
2021/09/20 07:28:46;;;;;;;10.23;2.90;;;13.50;99.90;;;13.85;74.51;101655.47;5100731;28;20182;-72
2021/09/20 07:31:13;;;;;;;11.77;2.95;;;13.60;99.90;;;13.86;74.29;101655.44;5106039;28;20191;-72
2021/09/20 07:33:40;;;;;;;9.00;3.60;;;13.60;99.90;;;13.91;74.11;101657.91;5107822;28;20232;-71
2021/09/20 07:36:07;;;;;;;10.32;3.00;;;13.60;99.90;;;13.95;73.81;101656.88;5104276;28;20547;-72
2021/09/20 07:38:35;;;;;;;8.95;3.20;;;13.60;99.90;;;13.98;73.39;101671.72;5103333;28;20206;-71
2021/09/20 07:41:02;;;;;;;10.27;2.78;;;13.70;99.90;;;14.01;73.48;101655.81;5111384;28;20271;-71
2021/09/20 07:43:30;;;;;;;11.40;2.58;;;13.70;99.90;;;14.04;73.63;101659.19;5109127;28;20214;-71
2021/09/20 07:45:57;;;;;;;9.77;3.25;;;13.70;99.90;;;14.09;73.13;101665.13;5105837;28;20241;-71
2021/09/20 07:48:24;;;;;;;9.52;3.00;;;13.70;99.90;;;14.15;73.29;101667.53;5103890;28;22357;-70
2021/09/20 07:50:51;;;;;;;10.93;3.28;;;13.80;99.90;;;14.20;73.28;101662.97;5102872;28;20187;-70
2021/09/20 07:53:17;;;;;;;8.30;2.47;;;13.90;99.90;;;14.26;73.16;101673.31;5107288;28;20589;-71
2021/09/20 07:55:44;;;;;;;9.52;3.40;;;13.90;99.90;;;14.31;72.99;101670.50;5105390;28;20674;-70
2021/09/20 07:58:12;;;;;;;7.40;2.70;;;14.00;99.90;;;14.36;72.98;101664.16;5106873;27;20187;-71
2021/09/20 08:00:44;;;;;;;9.00;2.63;;;14.10;99.90;;;14.41;72.49;101671.88;5109693;28;20294;-71
2021/09/20 08:03:11;;;;;;;9.77;2.85;;;14.10;99.90;;;14.44;72.72;101666.47;5106881;28;20293;-72
2021/09/20 08:05:42;;;;;;;7.95;2.65;;;14.20;99.90;;;14.49;72.47;101675.06;5107247;27;20195;-70
2021/09/20 08:08:09;;;;;;;9.45;2.50;;;14.20;99.90;;;14.51;72.78;101668.84;5112329;28;20327;-71
2021/09/20 08:10:37;;;;;;;10.50;3.00;;;14.30;99.90;;;14.55;72.58;101675.69;5101874;27;20182;-71
2021/09/20 08:13:06;;;;;;;8.32;2.80;;;14.30;99.90;;;14.60;72.45;101671.09;5112162;28;20725;-71
2021/09/20 08:15:34;;;;;;;9.85;2.70;;;14.40;99.90;;;14.64;72.15;101677.13;5109747;28;20186;-69
2021/09/20 08:18:03;;;;;;;10.18;2.80;;;14.40;99.90;;;14.68;71.93;101676.97;5101611;28;20203;-69
2021/09/20 08:20:31;;;;;;;10.00;3.13;;;14.50;99.90;;;14.71;71.93;101679.47;5102715;28;20215;-70
2021/09/20 08:22:57;;;;;;;11.15;2.50;;;14.50;99.90;;;14.76;71.55;101676.66;5110139;28;20234;-72
2021/09/20 08:25:25;;;;;;;9.93;3.03;;;14.60;99.90;;;14.78;71.51;101677.44;5110635;27;20291;-70
2021/09/20 08:27:53;;;;;;;9.20;2.78;;;14.60;99.90;;;14.85;71.41;101677.13;5112476;28;20179;-70
2021/09/20 08:30:22;;;;;;;9.18;2.97;;;14.70;99.90;;;14.93;71.09;101685.63;5110815;28;20247;-70
2021/09/20 08:32:50;;;;;;;12.80;3.70;;;14.80;99.90;;;14.99;70.47;101676.59;5129038;27;20214;-70
2021/09/20 08:35:19;;;;;;;11.07;2.72;;;14.80;99.90;;;15.02;70.26;101679.09;5109611;28;20660;-70
2021/09/20 08:37:47;;;;;;;9.60;3.35;;;14.80;99.90;;;15.00;70.04;101678.31;5108111;28;20224;-70
2021/09/20 08:40:17;;;;;;;10.40;2.95;;;14.80;99.90;;;15.00;69.58;101679.16;5107849;28;20678;-70
2021/09/20 08:42:44;;;;;;;11.75;3.28;;;14.70;99.90;;;14.95;69.43;101681.13;5112756;28;20289;-71
2021/09/20 08:45:17;;;;;;;10.43;3.08;;;14.70;99.90;;;14.92;69.18;101673.34;5116523;28;20191;-71
2021/09/20 08:47:48;;;;;;;11.30;3.10;;;14.70;99.90;;;14.93;69.06;101680.34;5119379;28;20193;-71
2021/09/20 08:50:20;;;;;;;8.32;2.85;;;14.70;99.90;;;14.96;68.97;101681.97;5103336;28;20270;-70
2021/09/20 08:52:48;;;;;;;8.85;2.80;;;14.70;99.90;;;14.99;68.66;101682.72;5110609;28;20283;-71
2021/09/20 08:55:16;;;;;;;8.57;2.55;;;14.70;99.90;;;15.00;68.34;101679.16;5109205;28;20188;-71
2021/09/20 08:57:43;;;;;;;13.68;3.97;;;14.70;99.90;;;14.98;67.98;101681.03;5104623;28;20183;-71
2021/09/20 09:00:12;;;;;;;8.88;3.15;;;14.70;99.90;;;14.99;68.18;101681.84;5104854;28;20195;-71
2021/09/20 09:02:42;;;;;;;13.85;4.28;;;14.80;99.90;;;15.00;68.73;101683.59;5106997;28;20211;-73
2021/09/20 09:05:16;;;;;;;8.15;2.65;;;14.80;99.90;;;15.01;68.38;101683.53;5110952;28;20190;-71
2021/09/20 09:07:48;;;;;;;8.98;2.67;;;14.80;99.90;;;15.03;68.37;101684.34;5090663;28;20205;-71
2021/09/20 09:10:16;;;;;;;7.65;2.63;;;14.80;99.90;;;15.04;68.50;101685.16;5100312;28;20422;-72
2021/09/20 09:12:44;;;;;;;8.52;2.20;;;14.80;99.90;;;15.13;67.97;101683.94;5108828;28;20230;-71
2021/09/20 09:15:14;;;;;;;7.55;2.53;;;14.90;99.90;;;15.14;67.54;101680.41;5109906;28;20202;-72
2021/09/20 09:17:45;;;;;;;7.50;2.35;;;14.90;99.90;;;15.14;66.53;101683.03;5101132;28;20191;-72
2021/09/20 09:20:15;;;;;;;10.30;2.67;;;14.90;99.90;;;15.11;65.58;101689.28;5109652;28;20206;-72
2021/09/20 09:22:47;;;;;;;8.38;2.40;;;14.90;99.90;;;15.11;65.00;101686.63;5109136;28;20264;-72
2021/09/20 09:25:18;;;;;;;8.18;2.40;;;14.80;99.90;;;15.13;64.94;101684.81;5111330;28;20190;-71
2021/09/20 09:27:48;;;;;;;9.98;3.13;;;14.80;99.90;;;15.17;64.75;101690.81;5102255;28;20183;-72
2021/09/20 09:30:20;;;;;;;9.63;3.70;;;14.90;99.90;;;15.19;64.74;101691.63;5105972;28;20206;-70
2021/09/20 09:33:05;;;;;;;8.38;2.45;;;14.90;99.90;;;15.20;64.79;101686.28;5109136;27;20623;-72
2021/09/20 09:35:33;;;;;;;11.65;4.55;;;14.90;99.90;;;15.24;64.71;101684.38;5104541;28;20215;-72
2021/09/20 09:38:05;;;;;;;9.63;2.65;;;14.90;99.90;;;15.29;64.75;101685.03;5116659;27;20191;-72
2021/09/20 09:40:47;;;;;;;7.07;2.70;;;14.90;99.90;;;15.28;64.57;101683.31;5101140;28;20693;-74
2021/09/20 09:43:22;;;;;;;9.52;2.58;;;15.00;99.90;;;15.23;64.15;101680.88;5098407;28;20227;-71
2021/09/20 09:45:49;;;;;;;7.35;2.45;;;15.00;99.90;;;15.21;64.58;101679.19;5109793;27;20198;-71
2021/09/20 09:48:18;;;;;;;8.32;2.25;;;14.90;99.90;;;15.21;64.58;101676.56;5105449;28;20540;-70
2021/09/20 09:50:49;;;;;;;8.32;2.55;;;14.90;99.90;;;15.30;64.46;101681.47;5104070;28;20663;-70
2021/09/20 09:53:31;;;;;;;6.97;2.08;;;15.00;99.90;;;15.39;64.35;101692.53;5105053;28;20225;-71
2021/09/20 09:56:01;;;;;;;12.38;2.80;;;15.10;99.90;;;15.41;64.56;101690.69;5102494;28;20671;-70
2021/09/20 09:58:28;;;;;;;9.70;2.42;;;15.20;99.90;;;15.38;64.41;101679.38;5108258;27;20214;-71
2021/09/20 10:01:16;;;;;;;9.95;2.63;;;15.10;99.90;;;15.37;64.81;101691.69;5108619;27;20187;-70
2021/09/20 10:04:07;;;;;;;8.52;2.42;;;15.10;99.90;;;15.39;64.68;101691.66;5103885;28;20190;-70
2021/09/20 10:06:52;;;;;;;7.65;2.47;;;15.10;99.90;;;15.43;64.71;101688.00;5097764;28;20217;-72
2021/09/20 10:09:24;;;;;;;9.57;2.58;;;15.20;99.90;;;15.49;64.62;101682.47;5119371;27;20194;-72
2021/09/20 10:11:53;;;;;;;9.27;2.90;;;15.30;99.90;;;15.55;64.23;101682.19;5102889;28;20285;-72
2021/09/20 10:14:21;;;;;;;11.68;5.07;;;15.40;99.90;;;15.62;63.96;101673.97;5111328;27;20209;-71